METAR Data
IDs: Format: Raw Decoded Include TAF

Data at: 0236 UTC 26 Apr 2019

K4R5 260215Z AUTO 27004KT 10SM OVC100 12/M01 A2975 RMK AO2 T01231009
K4R5 260155Z AUTO 00000KT 10SM OVC100 10/00 A2974 RMK AO2 T00991001
K4R5 260135Z AUTO 01003KT 10SM SCT085 BKN100 11/M01 A2973 RMK AO2 T01131012
K4R5 260115Z AUTO 00000KT 10SM BKN110 11/M01 A2974 RMK AO2 T01051009
K4R5 260055Z AUTO 00000KT 10SM BKN120 11/M02 A2973 RMK AO2 T01101016
K4R5 260035Z AUTO 00000KT 10SM OVC120 11/00 A2972 RMK AO2 T01051001
K4R5 260015Z AUTO 00000KT 10SM BKN120 12/M03 A2973 RMK AO2 T01151029
K4R5 252355Z AUTO 11004KT 10SM CLR 13/M04 A2973 RMK AO2 T01301036
K4R5 252335Z AUTO 11003KT 10SM CLR 15/M03 A2973 RMK AO2 T01451035
K4R5 252315Z AUTO 16003KT 10SM CLR 15/M03 A2974 RMK AO2 T01511033
K4R5 252255Z AUTO 12003KT 10SM CLR 16/M03 A2974 RMK AO2 T01561030
K4R5 252235Z AUTO 12004KT 10SM CLR 16/M04 A2975 RMK AO2 T01581036
K4R5 252215Z AUTO 15006KT 10SM CLR 16/M03 A2976 RMK AO2 T01621029
K4R5 252155Z AUTO 12006KT 10SM CLR 16/M02 A2976 RMK AO2 T01601022
K4R5 252135Z AUTO 11005KT 10SM CLR 16/M02 A2976 RMK AO2 T01631018
K4R5 252115Z AUTO 13006KT 10SM CLR 15/M02 A2977 RMK AO2 T01531021
K4R5 252055Z AUTO 11007KT 10SM CLR 16/M02 A2977 RMK AO2 T01601018
K4R5 252035Z AUTO 12005KT 10SM CLR 16/M01 A2978 RMK AO2 T01601009
K4R5 251955Z AUTO 13004KT 10SM CLR 15/03 A2979 RMK AO2 T01490026
K4R5 251935Z AUTO 15005KT 10SM CLR 15/04 A2979 RMK AO2 T01500038
K4R5 251915Z AUTO 11003KT 10SM CLR 15/03 A2979 RMK AO2 T01500029
K4R5 251855Z AUTO 10003KT 10SM CLR 15/02 A2980 RMK AO2 T01510022
K4R5 251835Z AUTO 11004KT 10SM CLR 14/04 A2980 RMK AO2 T01410042
K4R5 251815Z AUTO 11004KT 10SM CLR 14/05 A2980 RMK AO2 T01440050
K4R5 251755Z AUTO 15004KT 10SM CLR 13/05 A2980 RMK AO2 T01330047
K4R5 251735Z AUTO 13004KT 10SM CLR 14/05 A2981 RMK AO2 T01360050
K4R5 251715Z AUTO 12005KT 10SM CLR 14/05 A2981 RMK AO2 T01370045
K4R5 251655Z AUTO 00000KT 10SM CLR 13/05 A2981 RMK AO2 T01310047
K4R5 251635Z AUTO 11004KT 10SM CLR 14/04 A2982 RMK AO2 T01360044
K4R5 251615Z AUTO 11004KT 10SM CLR 13/05 A2980 RMK AO2 T01320048
K4R5 251555Z AUTO 00000KT 10SM CLR 13/05 A2980 RMK AO2 T01320050
K4R5 251535Z AUTO 00000KT 10SM CLR 13/04 A2980 RMK AO2 T01290039
K4R5 251515Z AUTO 03004KT 10SM SCT100 13/04 A2980 RMK AO2 T01270038
K4R5 251455Z AUTO 03003KT 10SM SCT100 12/04 A2979 RMK AO2 T01170041
K4R5 251435Z AUTO 02003KT 10SM BKN095 09/04 A2979 RMK AO2 T00900043
K4R5 251415Z AUTO 36004KT 10SM OVC095 09/05 A2978 RMK AO2 T00850045
K4R5 251355Z AUTO 00000KT 10SM BKN095 BKN110 09/05 A2978 RMK AO2 T00870051
K4R5 251335Z AUTO 00000KT 10SM BKN085 08/05 A2978 RMK AO2 T00760052
K4R5 251315Z AUTO 00000KT 10SM BKN085 08/06 A2977 RMK AO2 T00770058
K4R5 251255Z AUTO 00000KT 10SM SCT085 SCT110 06/05 A2977 RMK AO2 T00620052
K4R5 251235Z AUTO 00000KT 10SM SCT110 05/04 A2976 RMK AO2 T00480042
K4R5 251215Z AUTO 00000KT 10SM OVC100 04/03 A2975 RMK AO2 T00360033
K4R5 251155Z AUTO 00000KT 10SM OVC110 03/03 A2974 RMK AO2 T00320031
K4R5 251135Z AUTO 00000KT 10SM OVC110 02/02 A2973 RMK AO2 T00210019
K4R5 251115Z AUTO 00000KT 10SM BKN100 OVC110 02/01 A2973 RMK AO2 T00150011
K4R5 251055Z AUTO 00000KT 10SM OVC100 02/01 A2972 RMK AO2 T00160013
K4R5 251035Z AUTO 00000KT 10SM OVC100 02/02 A2971 RMK AO2 T00210018
K4R5 251015Z AUTO 00000KT 10SM OVC110 02/02 A2971 RMK AO2 T00190016
K4R5 250955Z AUTO 00000KT 10SM BKN110 02/02 A2970 RMK AO2 T00200018
K4R5 250935Z AUTO 00000KT 10SM SCT120 02/02 A2969 RMK AO2 T00240020
K4R5 250915Z AUTO 00000KT 10SM CLR 03/03 A2969 RMK AO2 T00290025
K4R5 250855Z AUTO 00000KT 10SM CLR 03/03 A2968 RMK AO2 T00330027
K4R5 250835Z AUTO 00000KT 10SM SCT110 04/03 A2967 RMK AO2 T00350028
K4R5 250815Z AUTO 00000KT 10SM BKN110 04/03 A2967 RMK AO2 T00360031
K4R5 250755Z AUTO 00000KT 10SM SCT110 04/03 A2967 RMK AO2 T00360028
K4R5 250735Z AUTO 00000KT 10SM CLR 04/03 A2966 RMK AO2 T00350027
K4R5 250715Z AUTO 00000KT 10SM CLR 04/03 A2967 RMK AO2 T00360027
K4R5 250655Z AUTO 00000KT 10SM CLR 04/03 A2967 RMK AO2 T00400029
K4R5 250635Z AUTO 00000KT 10SM CLR 05/03 A2967 RMK AO2 T00450030
K4R5 250615Z AUTO 00000KT 10SM CLR 06/03 A2967 RMK AO2 T00600034
K4R5 250555Z AUTO 00000KT 10SM CLR 07/04 A2967 RMK AO2 T00690035
K4R5 250535Z AUTO 02005KT 10SM SCT110 07/04 A2967 RMK AO2 T00740036
K4R5 250515Z AUTO 00000KT 10SM BKN100 07/04 A2966 RMK AO2 T00740044
K4R5 250455Z AUTO 00000KT 10SM SCT100 08/05 A2966 RMK AO2 T00770054
K4R5 250435Z AUTO 00000KT 10SM SCT100 09/06 A2965 RMK AO2 T00930056
K4R5 250415Z AUTO 00000KT 10SM SCT100 10/06 A2965 RMK AO2 T00970059
K4R5 250355Z AUTO 24003KT 10SM SCT110 11/06 A2965 RMK AO2 T01090060
K4R5 250335Z AUTO 25003KT 10SM BKN110 13/06 A2965 RMK AO2 T01260060
K4R5 250315Z AUTO 23003KT 10SM CLR 13/06 A2965 RMK AO2 T01320060
K4R5 250255Z AUTO 23004KT 10SM CLR 13/07 A2965 RMK AO2 T01320065
K4R5 250235Z AUTO 23004KT 10SM SCT100 14/06 A2965 RMK AO2 T01350063
K4R5 250215Z AUTO 25003KT 10SM SCT110 14/07 A2965 RMK AO2 T01350070
K4R5 250155Z AUTO 21004KT 10SM SCT095 BKN110 14/07 A2965 RMK AO2 T01400067
K4R5 250135Z AUTO 22004KT 10SM BKN110 15/07 A2965 RMK AO2 T01520065
K4R5 250115Z AUTO 22004KT 10SM BKN110 16/07 A2964 RMK AO2 T01610067
K4R5 250055Z AUTO 25009G14KT 10SM SCT080 BKN110 17/06 A2964 RMK AO2 T01660061
K4R5 250035Z AUTO 23005KT 10SM -RA SCT090 OVC120 16/06 A2964 RMK AO2 T01630059
K4R5 250015Z AUTO 24005KT 10SM BKN090 BKN120 18/05 A2963 RMK AO2 T01830045
K4R5 242355Z AUTO 22004KT 10SM SCT110 19/04 A2963 RMK AO2 T01910044
K4R5 242335Z AUTO 23004KT 10SM BKN100 19/05 A2963 RMK AO2 T01910046
K4R5 242315Z AUTO 23009G14KT 200V260 10SM CLR 20/04 A2963 RMK AO2 T02010042
K4R5 242255Z AUTO 21007KT 180V240 10SM CLR 21/04 A2963 RMK AO2 T02070043
K4R5 242235Z AUTO 23008KT 10SM SCT120 20/04 A2963 RMK AO2 T02020044
K4R5 242215Z AUTO 23008G14KT 10SM SCT120 20/04 A2963 RMK AO2 T02030044
K4R5 242155Z AUTO 21006G15KT 10SM CLR 21/04 A2963 RMK AO2 T02080042
K4R5 242135Z AUTO 21010G16KT 170V230 10SM CLR 20/04 A2964 RMK AO2 T02040038
K4R5 242115Z AUTO 20009G18KT 160V240 10SM BKN120 20/04 A2965 RMK AO2 LTG DSNT N T02010036
K4R5 242055Z AUTO 21009G17KT 140V240 10SM OVC120 20/04 A2965 RMK AO2 T01990035
K4R5 242035Z AUTO 19012G16KT 160V220 10SM SCT120 20/03 A2965 RMK AO2 T02010034
K4R5 242015Z AUTO 21009G19KT 180V250 10SM CLR 19/03 A2966 RMK AO2 T01940032
K4R5 241955Z AUTO 19008G16KT 140V250 10SM CLR 19/04 A2967 RMK AO2 T01940037
K4R5 241935Z AUTO 19006G14KT 10SM BKN085 18/04 A2969 RMK AO2 T01830036
K4R5 241915Z AUTO 20008G15KT 170V230 10SM BKN085 BKN120 17/03 A2970 RMK AO2 T01720030
K4R5 241855Z AUTO 20007KT 160V230 10SM SCT110 17/03 A2970 RMK AO2 T01670029
K4R5 241835Z AUTO 21006KT 10SM OVC090 16/03 A2971 RMK AO2 T01600026
K4R5 241815Z AUTO 20007KT 10SM OVC090 16/02 A2972 RMK AO2 T01570023
K4R5 241755Z AUTO 20009G17KT 170V230 10SM BKN100 16/03 A2973 RMK AO2 T01580025
K4R5 241735Z AUTO 18005KT 10SM SCT100 SCT120 18/03 A2974 RMK AO2 T01760032
K4R5 241715Z AUTO 18004KT 10SM OVC100 16/03 A2974 RMK AO2 T01620030
K4R5 241655Z AUTO 17006KT 10SM OVC100 15/03 A2975 RMK AO2 T01540027
K4R5 241635Z AUTO 20007KT 160V220 10SM SCT050 SCT070 OVC090 14/02 A2977 RMK AO2 T01400024
K4R5 241615Z AUTO 18005KT 10SM -RA SCT070 OVC090 14/03 A2977 RMK AO2 T01370030
K4R5 241555Z AUTO 21004KT 10SM -RA SCT050 SCT070 OVC090 14/03 A2978 RMK AO2 T01350027
K4R5 241535Z AUTO 20006KT 10SM OVC090 14/03 A2979 RMK AO2 T01350027
K4R5 241515Z AUTO 21005KT 10SM OVC100 14/03 A2979 RMK AO2 T01350026
K4R5 241455Z AUTO 20008KT 160V230 10SM OVC100 13/03 A2980 RMK AO2 T01260026